Knoke, Iowa
Current Conditions -  °F | °C
As of 4:55 AM on Thursday 27 Nov 2014 (Local Time) from KFOD Reporting Station
Clear Clear  
Wind Chill: -17°   Ceiling: Unl
Heat Index:   Visibility: 10mi
Dew Point: -9°   Wind: 10mph
Humidity: 66%   Direction: 330°NNW
Pressure: 30.48"   Gusts: NA
Location:  42.5199°N, 94.6301°W
Report Text: KFOD 271055Z AUTO 33009KT 10SM CLR M18/M23 A3048 RMK AO1
Loading
Personal Weather Stations






























Interactive Weather Map New forecast layout! Learn more

10-Day Weather Forecast

Advertisements
Track Severe Weather on mobile